Summerland, California
Current Conditions -  °F | °C
As of 12:04 PM on Friday 31 Oct 2014 (Local Time) from KSBA Reporting Station
Overcast Overcast  
Wind Chill: 69°   Ceiling: 5500
Heat Index: 69°   Visibility: 10mi
Dew Point: 58°   Wind: 9mph
Humidity: 68%   Direction: 150°SSE
Pressure: 29.93"   Gusts: NA
Location:  34.42°N, 119.6°W
Report Text: KSBA 311904Z 15008KT 10SM FEW020 SCT040 OVC055 21/14 A2993 RMK AO2 T02060144
Loading
Personal Weather Stations






























Interactive Weather Map
Tropical Storm Tracking
New forecast layout! Learn more

10-Day Weather Forecast

Advertisements
Track Severe Weather on mobile